Wells, MI (49894)

8:34 PM EST on January 29, 2015 (GMT -0500)
Soo Hill Location near | Change Station
CLOSE
Current Station
Personal Weather Station
Location: Escanaba, MI
Elevation: 708 ft
Nearby Weather Stations

Elev 708 ft 45.80 °N, 87.13 °W | Updated 4 seconds ago

Partly Cloudy
Partly Cloudy
18.0 °F
Feels Like 6 °F
N
10.5
Wind Variable Wind from WNW
Gusts 10.5 mph

Today
High -- | Low -- °F
--% Chance of Precip.
Yesterday
High -- | Low -- °F
Precip. -- in
8:13 AM 5:49 PM
Waxing Gibbous, 78% visible
Pressure 30.20 in
Visibility 10.0 miles
Clouds Scattered Clouds 3300 ft
Mostly Cloudy 6500 ft
Windchill 6 °F
Dew Point -4 °F
Humidity 38%
Rainfall 0.00 in
Snow Depth Not available.
UV 0 out of 12
Pollen .10 out of 12
Air Quality Not available.
Flu Activity Not available.
METAR KESC 300115Z AUTO 32014G26KT 10SM SCT033 BKN065 M07/M14 A3020 RMK AO1

More Conditions Fewer Conditions

Pressure 30.20 in
Visibility 10.0 miles
Clouds Scattered Clouds 3300 ft
Mostly Cloudy 6500 ft
Windchill 6 °F
Dew Point -4 °F
Humidity 38%
Rainfall 0.00 in
Snow Depth Not available.
UV 0 out of 12
Pollen .10 out of 12
Air Quality Not available.
Flu Activity Not available.
METAR KESC 300115Z AUTO 32014G26KT 10SM SCT033 BKN065 M07/M14 A3020 RMK AO1

More Conditions Fewer Conditions

10-Day Weather Forecast

Almanac

Astronomy

Jan. 29, 2015 Rise Set
Actual Time
Civil Twilight
Nautical Twilight
Astronomical Twilight
Moon
Length of Visible Light
Length of Day
Tomorrow will be .
, % of the Moon is Illuminated

Today's Extremes

State Highs State Lows

Community

WunderPhotos

Upload Photos

1,791,668 photos uploaded!

WunderBlogs® & News

Nearby

Air Quality

  Air Quality AQ Index Pollutant
Not available.

Snow Depth

Station Depth Elevation

Earthquake Activity

City Distance Mag. Time & Date
Minimum magnitude displayed is 2.5.

Coastal Water Temperatures

Place Temperature

Nearby Weather Stations